sensor_id;sensor_type;location;lat;lon;timestamp;P1;durP1;ratioP1;P2;durP2;ratioP2
81273;SDS011;70753;47.908;11.274;2023-08-20T00:01:00;8.10;;;3.70;;
81273;SDS011;70753;47.908;11.274;2023-08-20T00:03:27;9.18;;;4.13;;
81273;SDS011;70753;47.908;11.274;2023-08-20T00:05:55;6.80;;;3.63;;
81273;SDS011;70753;47.908;11.274;2023-08-20T00:08:21;8.38;;;4.18;;
81273;SDS011;70753;47.908;11.274;2023-08-20T00:10:47;7.18;;;3.50;;
81273;SDS011;70753;47.908;11.274;2023-08-20T00:13:13;8.35;;;4.10;;
81273;SDS011;70753;47.908;11.274;2023-08-20T00:15:38;8.57;;;4.22;;
81273;SDS011;70753;47.908;11.274;2023-08-20T00:18:04;7.90;;;3.67;;
81273;SDS011;70753;47.908;11.274;2023-08-20T00:20:30;6.60;;;3.72;;
81273;SDS011;70753;47.908;11.274;2023-08-20T00:22:58;8.30;;;3.85;;
81273;SDS011;70753;47.908;11.274;2023-08-20T00:25:24;7.45;;;3.88;;
81273;SDS011;70753;47.908;11.274;2023-08-20T00:27:50;6.28;;;3.55;;
81273;SDS011;70753;47.908;11.274;2023-08-20T00:30:15;7.90;;;3.97;;
81273;SDS011;70753;47.908;11.274;2023-08-20T00:32:41;6.57;;;3.80;;
81273;SDS011;70753;47.908;11.274;2023-08-20T00:35:07;9.43;;;3.83;;
81273;SDS011;70753;47.908;11.274;2023-08-20T00:37:32;9.23;;;4.60;;
81273;SDS011;70753;47.908;11.274;2023-08-20T00:39:59;7.93;;;3.92;;
81273;SDS011;70753;47.908;11.274;2023-08-20T00:42:24;8.50;;;4.07;;
81273;SDS011;70753;47.908;11.274;2023-08-20T00:44:50;7.10;;;3.60;;
81273;SDS011;70753;47.908;11.274;2023-08-20T00:47:16;8.15;;;3.92;;
81273;SDS011;70753;47.908;11.274;2023-08-20T00:49:43;8.88;;;4.20;;
81273;SDS011;70753;47.908;11.274;2023-08-20T00:52:08;8.75;;;4.40;;
81273;SDS011;70753;47.908;11.274;2023-08-20T00:54:35;8.57;;;3.83;;
81273;SDS011;70753;47.908;11.274;2023-08-20T00:57:03;7.72;;;3.67;;
81273;SDS011;70753;47.908;11.274;2023-08-20T00:59:30;11.45;;;3.55;;
81273;SDS011;70753;47.908;11.274;2023-08-20T01:01:57;9.63;;;3.88;;
81273;SDS011;70753;47.908;11.274;2023-08-20T01:04:22;8.25;;;3.88;;
81273;SDS011;70753;47.908;11.274;2023-08-20T01:06:50;8.80;;;3.35;;
81273;SDS011;70753;47.908;11.274;2023-08-20T01:09:21;8.10;;;4.45;;
81273;SDS011;70753;47.908;11.274;2023-08-20T01:11:55;8.38;;;3.83;;
81273;SDS011;70753;47.908;11.274;2023-08-20T01:14:25;14.70;;;4.05;;
81273;SDS011;70753;47.908;11.274;2023-08-20T01:16:51;9.88;;;4.22;;
81273;SDS011;70753;47.908;11.274;2023-08-20T01:19:18;9.05;;;3.65;;
81273;SDS011;70753;47.908;11.274;2023-08-20T01:21:47;6.35;;;3.20;;
81273;SDS011;70753;47.908;11.274;2023-08-20T01:24:35;7.15;;;3.50;;
81273;SDS011;70753;47.908;11.274;2023-08-20T01:27:10;10.55;;;4.18;;
81273;SDS011;70753;47.908;11.274;2023-08-20T01:29:53;6.82;;;3.60;;
81273;SDS011;70753;47.908;11.274;2023-08-20T01:32:20;8.05;;;3.88;;
81273;SDS011;70753;47.908;11.274;2023-08-20T01:34:48;9.90;;;3.58;;
81273;SDS011;70753;47.908;11.274;2023-08-20T01:37:13;7.25;;;3.80;;
81273;SDS011;70753;47.908;11.274;2023-08-20T01:39:39;8.82;;;3.88;;
81273;SDS011;70753;47.908;11.274;2023-08-20T01:42:05;9.82;;;3.33;;
81273;SDS011;70753;47.908;11.274;2023-08-20T01:44:31;7.90;;;3.85;;
81273;SDS011;70753;47.908;11.274;2023-08-20T01:46:58;7.45;;;3.60;;
81273;SDS011;70753;47.908;11.274;2023-08-20T01:49:23;9.48;;;3.80;;
81273;SDS011;70753;47.908;11.274;2023-08-20T01:51:48;7.30;;;3.22;;
81273;SDS011;70753;47.908;11.274;2023-08-20T01:54:14;9.93;;;4.00;;
81273;SDS011;70753;47.908;11.274;2023-08-20T01:56:39;6.65;;;3.40;;
81273;SDS011;70753;47.908;11.274;2023-08-20T01:59:05;11.10;;;4.05;;
81273;SDS011;70753;47.908;11.274;2023-08-20T02:01:30;8.55;;;4.30;;
81273;SDS011;70753;47.908;11.274;2023-08-20T02:03:57;8.85;;;4.00;;
81273;SDS011;70753;47.908;11.274;2023-08-20T02:06:22;8.73;;;4.50;;
81273;SDS011;70753;47.908;11.274;2023-08-20T02:08:48;8.07;;;3.70;;
81273;SDS011;70753;47.908;11.274;2023-08-20T02:11:13;6.43;;;3.65;;
81273;SDS011;70753;47.908;11.274;2023-08-20T02:13:39;9.18;;;3.88;;
81273;SDS011;70753;47.908;11.274;2023-08-20T02:16:04;7.45;;;3.53;;
81273;SDS011;70753;47.908;11.274;2023-08-20T02:18:30;6.90;;;3.35;;
81273;SDS011;70753;47.908;11.274;2023-08-20T02:20:57;7.82;;;3.75;;
81273;SDS011;70753;47.908;11.274;2023-08-20T02:23:23;8.63;;;4.00;;
81273;SDS011;70753;47.908;11.274;2023-08-20T02:25:49;8.60;;;3.92;;
81273;SDS011;70753;47.908;11.274;2023-08-20T02:28:14;9.80;;;3.60;;
81273;SDS011;70753;47.908;11.274;2023-08-20T02:30:40;9.55;;;4.20;;
81273;SDS011;70753;47.908;11.274;2023-08-20T02:33:06;8.13;;;3.53;;
81273;SDS011;70753;47.908;11.274;2023-08-20T02:35:31;7.28;;;3.75;;
81273;SDS011;70753;47.908;11.274;2023-08-20T02:37:58;9.18;;;3.85;;
81273;SDS011;70753;47.908;11.274;2023-08-20T02:40:23;5.93;;;3.35;;
81273;SDS011;70753;47.908;11.274;2023-08-20T02:42:49;11.95;;;3.97;;
81273;SDS011;70753;47.908;11.274;2023-08-20T02:45:14;6.70;;;4.25;;
81273;SDS011;70753;47.908;11.274;2023-08-20T02:47:40;9.50;;;4.03;;
81273;SDS011;70753;47.908;11.274;2023-08-20T02:50:05;9.82;;;3.75;;
81273;SDS011;70753;47.908;11.274;2023-08-20T02:52:31;7.72;;;4.20;;
81273;SDS011;70753;47.908;11.274;2023-08-20T02:54:58;8.68;;;4.10;;
81273;SDS011;70753;47.908;11.274;2023-08-20T02:57:24;7.45;;;3.85;;
81273;SDS011;70753;47.908;11.274;2023-08-20T02:59:50;8.60;;;4.78;;
81273;SDS011;70753;47.908;11.274;2023-08-20T03:02:15;9.75;;;4.03;;
81273;SDS011;70753;47.908;11.274;2023-08-20T03:04:41;9.05;;;4.28;;
81273;SDS011;70753;47.908;11.274;2023-08-20T03:07:06;8.15;;;3.72;;
81273;SDS011;70753;47.908;11.274;2023-08-20T03:09:32;9.27;;;3.90;;
81273;SDS011;70753;47.908;11.274;2023-08-20T03:11:58;9.05;;;4.63;;
81273;SDS011;70753;47.908;11.274;2023-08-20T03:14:24;9.15;;;4.10;;
81273;SDS011;70753;47.908;11.274;2023-08-20T03:16:49;6.45;;;3.90;;
81273;SDS011;70753;47.908;11.274;2023-08-20T03:19:14;7.80;;;4.28;;
81273;SDS011;70753;47.908;11.274;2023-08-20T03:21:41;5.80;;;4.07;;
81273;SDS011;70753;47.908;11.274;2023-08-20T03:24:07;9.35;;;4.95;;
81273;SDS011;70753;47.908;11.274;2023-08-20T03:26:33;8.90;;;4.22;;
81273;SDS011;70753;47.908;11.274;2023-08-20T03:29:00;7.78;;;4.47;;
81273;SDS011;70753;47.908;11.274;2023-08-20T03:31:25;9.88;;;4.65;;
81273;SDS011;70753;47.908;11.274;2023-08-20T03:33:51;7.38;;;4.05;;
81273;SDS011;70753;47.908;11.274;2023-08-20T03:36:16;7.05;;;4.10;;
81273;SDS011;70753;47.908;11.274;2023-08-20T03:38:42;8.05;;;4.25;;
81273;SDS011;70753;47.908;11.274;2023-08-20T03:41:07;9.25;;;4.72;;
81273;SDS011;70753;47.908;11.274;2023-08-20T03:43:36;9.30;;;4.43;;
81273;SDS011;70753;47.908;11.274;2023-08-20T03:46:03;9.20;;;4.40;;
81273;SDS011;70753;47.908;11.274;2023-08-20T03:48:28;9.20;;;3.88;;
81273;SDS011;70753;47.908;11.274;2023-08-20T03:50:54;8.05;;;4.20;;
81273;SDS011;70753;47.908;11.274;2023-08-20T03:53:31;10.00;;;4.22;;
81273;SDS011;70753;47.908;11.274;2023-08-20T03:55:56;6.93;;;4.28;;
81273;SDS011;70753;47.908;11.274;2023-08-20T03:58:22;11.15;;;4.00;;
81273;SDS011;70753;47.908;11.274;2023-08-20T04:00:48;7.68;;;3.70;;
81273;SDS011;70753;47.908;11.274;2023-08-20T04:03:15;9.13;;;4.68;;
81273;SDS011;70753;47.908;11.274;2023-08-20T04:05:41;9.18;;;4.05;;
81273;SDS011;70753;47.908;11.274;2023-08-20T04:08:06;8.70;;;4.68;;
81273;SDS011;70753;47.908;11.274;2023-08-20T04:10:32;9.23;;;4.32;;
81273;SDS011;70753;47.908;11.274;2023-08-20T04:12:57;6.65;;;4.20;;
81273;SDS011;70753;47.908;11.274;2023-08-20T04:15:23;7.30;;;3.97;;
81273;SDS011;70753;47.908;11.274;2023-08-20T04:17:48;10.70;;;4.40;;
81273;SDS011;70753;47.908;11.274;2023-08-20T04:20:16;9.30;;;4.80;;
81273;SDS011;70753;47.908;11.274;2023-08-20T04:22:41;7.88;;;4.10;;
81273;SDS011;70753;47.908;11.274;2023-08-20T04:25:07;8.15;;;4.07;;
81273;SDS011;70753;47.908;11.274;2023-08-20T04:27:33;8.05;;;4.07;;
81273;SDS011;70753;47.908;11.274;2023-08-20T04:29:59;9.73;;;4.20;;
81273;SDS011;70753;47.908;11.274;2023-08-20T04:32:24;7.57;;;3.63;;
81273;SDS011;70753;47.908;11.274;2023-08-20T04:34:50;10.88;;;4.00;;
81273;SDS011;70753;47.908;11.274;2023-08-20T04:37:17;8.18;;;4.40;;
81273;SDS011;70753;47.908;11.274;2023-08-20T04:39:43;7.18;;;4.03;;
81273;SDS011;70753;47.908;11.274;2023-08-20T04:42:09;9.45;;;3.78;;
81273;SDS011;70753;47.908;11.274;2023-08-20T04:44:34;6.10;;;3.72;;
81273;SDS011;70753;47.908;11.274;2023-08-20T04:47:00;6.93;;;4.10;;
81273;SDS011;70753;47.908;11.274;2023-08-20T04:49:25;10.70;;;4.47;;
81273;SDS011;70753;47.908;11.274;2023-08-20T04:51:51;7.25;;;3.85;;
81273;SDS011;70753;47.908;11.274;2023-08-20T04:54:18;14.40;;;4.20;;
81273;SDS011;70753;47.908;11.274;2023-08-20T04:56:43;10.82;;;3.95;;
81273;SDS011;70753;47.908;11.274;2023-08-20T04:59:09;10.68;;;3.95;;
81273;SDS011;70753;47.908;11.274;2023-08-20T05:01:34;9.00;;;3.38;;
81273;SDS011;70753;47.908;11.274;2023-08-20T05:04:00;11.63;;;4.47;;
81273;SDS011;70753;47.908;11.274;2023-08-20T05:06:25;7.47;;;3.67;;
81273;SDS011;70753;47.908;11.274;2023-08-20T05:08:50;8.75;;;3.38;;
81273;SDS011;70753;47.908;11.274;2023-08-20T05:11:17;8.13;;;4.20;;
81273;SDS011;70753;47.908;11.274;2023-08-20T05:13:44;8.30;;;3.67;;
81273;SDS011;70753;47.908;11.274;2023-08-20T05:16:10;6.95;;;3.83;;
81273;SDS011;70753;47.908;11.274;2023-08-20T05:18:35;7.38;;;3.60;;
81273;SDS011;70753;47.908;11.274;2023-08-20T05:21:00;10.38;;;4.30;;
81273;SDS011;70753;47.908;11.274;2023-08-20T05:23:26;9.57;;;3.80;;
81273;SDS011;70753;47.908;11.274;2023-08-20T05:25:52;8.65;;;4.15;;
81273;SDS011;70753;47.908;11.274;2023-08-20T05:28:19;10.50;;;4.20;;
81273;SDS011;70753;47.908;11.274;2023-08-20T05:30:52;7.40;;;3.65;;
81273;SDS011;70753;47.908;11.274;2023-08-20T05:33:19;9.43;;;4.10;;
81273;SDS011;70753;47.908;11.274;2023-08-20T05:35:44;6.28;;;3.60;;
81273;SDS011;70753;47.908;11.274;2023-08-20T05:38:10;8.15;;;4.45;;
81273;SDS011;70753;47.908;11.274;2023-08-20T05:40:35;8.15;;;4.90;;
81273;SDS011;70753;47.908;11.274;2023-08-20T05:43:01;10.48;;;5.13;;
81273;SDS011;70753;47.908;11.274;2023-08-20T05:45:28;9.98;;;4.20;;
81273;SDS011;70753;47.908;11.274;2023-08-20T05:47:54;10.20;;;4.85;;
81273;SDS011;70753;47.908;11.274;2023-08-20T05:50:19;7.85;;;4.25;;
81273;SDS011;70753;47.908;11.274;2023-08-20T05:52:44;9.05;;;5.43;;
81273;SDS011;70753;47.908;11.274;2023-08-20T05:55:11;10.65;;;4.93;;
81273;SDS011;70753;47.908;11.274;2023-08-20T05:57:36;11.23;;;5.55;;
81273;SDS011;70753;47.908;11.274;2023-08-20T06:00:02;10.57;;;3.95;;
81273;SDS011;70753;47.908;11.274;2023-08-20T06:02:29;9.52;;;4.90;;
81273;SDS011;70753;47.908;11.274;2023-08-20T06:04:55;9.15;;;4.65;;
81273;SDS011;70753;47.908;11.274;2023-08-20T06:07:20;9.32;;;4.13;;
81273;SDS011;70753;47.908;11.274;2023-08-20T06:09:46;9.88;;;5.03;;
81273;SDS011;70753;47.908;11.274;2023-08-20T06:12:12;10.68;;;4.65;;
81273;SDS011;70753;47.908;11.274;2023-08-20T06:14:38;10.20;;;4.50;;
81273;SDS011;70753;47.908;11.274;2023-08-20T06:17:03;8.80;;;4.25;;
81273;SDS011;70753;47.908;11.274;2023-08-20T06:19:30;12.25;;;4.72;;
81273;SDS011;70753;47.908;11.274;2023-08-20T06:21:55;9.50;;;4.78;;
81273;SDS011;70753;47.908;11.274;2023-08-20T06:24:21;7.90;;;4.60;;
81273;SDS011;70753;47.908;11.274;2023-08-20T06:26:46;10.73;;;4.63;;
81273;SDS011;70753;47.908;11.274;2023-08-20T06:29:12;8.38;;;4.63;;
81273;SDS011;70753;47.908;11.274;2023-08-20T06:31:37;7.40;;;4.07;;
81273;SDS011;70753;47.908;11.274;2023-08-20T06:34:03;12.02;;;4.80;;
81273;SDS011;70753;47.908;11.274;2023-08-20T06:36:31;10.00;;;5.03;;
81273;SDS011;70753;47.908;11.274;2023-08-20T06:38:56;9.43;;;4.88;;
81273;SDS011;70753;47.908;11.274;2023-08-20T06:41:22;8.52;;;4.90;;
81273;SDS011;70753;47.908;11.274;2023-08-20T06:43:48;9.07;;;4.80;;
81273;SDS011;70753;47.908;11.274;2023-08-20T06:46:13;8.05;;;4.07;;
81273;SDS011;70753;47.908;11.274;2023-08-20T06:48:39;8.70;;;4.15;;
81273;SDS011;70753;47.908;11.274;2023-08-20T06:51:07;9.95;;;4.95;;
81273;SDS011;70753;47.908;11.274;2023-08-20T06:53:37;8.25;;;4.30;;
81273;SDS011;70753;47.908;11.274;2023-08-20T06:56:02;11.20;;;4.82;;
81273;SDS011;70753;47.908;11.274;2023-08-20T06:58:28;9.20;;;4.88;;
81273;SDS011;70753;47.908;11.274;2023-08-20T07:00:54;11.55;;;4.35;;
81273;SDS011;70753;47.908;11.274;2023-08-20T07:03:19;7.22;;;4.50;;
81273;SDS011;70753;47.908;11.274;2023-08-20T07:05:45;8.90;;;4.80;;
81273;SDS011;70753;47.908;11.274;2023-08-20T07:08:10;6.53;;;4.03;;
81273;SDS011;70753;47.908;11.274;2023-08-20T07:10:37;6.30;;;4.50;;
81273;SDS011;70753;47.908;11.274;2023-08-20T07:13:02;11.15;;;4.80;;
81273;SDS011;70753;47.908;11.274;2023-08-20T07:15:29;7.18;;;4.70;;
81273;SDS011;70753;47.908;11.274;2023-08-20T07:17:54;11.10;;;4.35;;
81273;SDS011;70753;47.908;11.274;2023-08-20T07:20:20;8.63;;;5.20;;
81273;SDS011;70753;47.908;11.274;2023-08-20T07:22:45;9.13;;;5.05;;
81273;SDS011;70753;47.908;11.274;2023-08-20T07:25:10;12.32;;;5.05;;
81273;SDS011;70753;47.908;11.274;2023-08-20T07:27:37;10.68;;;4.72;;
81273;SDS011;70753;47.908;11.274;2023-08-20T07:30:03;10.10;;;4.60;;
81273;SDS011;70753;47.908;11.274;2023-08-20T07:32:29;8.88;;;5.03;;
81273;SDS011;70753;47.908;11.274;2023-08-20T07:34:56;11.10;;;4.57;;
81273;SDS011;70753;47.908;11.274;2023-08-20T07:37:21;11.38;;;4.93;;
81273;SDS011;70753;47.908;11.274;2023-08-20T07:39:46;10.50;;;4.78;;
81273;SDS011;70753;47.908;11.274;2023-08-20T07:42:12;7.00;;;4.47;;
81273;SDS011;70753;47.908;11.274;2023-08-20T07:44:39;8.43;;;4.45;;
81273;SDS011;70753;47.908;11.274;2023-08-20T07:47:04;11.27;;;4.60;;
81273;SDS011;70753;47.908;11.274;2023-08-20T07:49:30;7.72;;;4.90;;
81273;SDS011;70753;47.908;11.274;2023-08-20T07:51:55;11.27;;;4.70;;
81273;SDS011;70753;47.908;11.274;2023-08-20T07:54:21;9.82;;;5.15;;
81273;SDS011;70753;47.908;11.274;2023-08-20T07:56:46;10.73;;;5.10;;
81273;SDS011;70753;47.908;11.274;2023-08-20T07:59:12;7.10;;;4.90;;
81273;SDS011;70753;47.908;11.274;2023-08-20T08:01:38;9.73;;;4.47;;
81273;SDS011;70753;47.908;11.274;2023-08-20T08:04:04;9.02;;;4.10;;
81273;SDS011;70753;47.908;11.274;2023-08-20T08:06:30;8.05;;;4.57;;
81273;SDS011;70753;47.908;11.274;2023-08-20T08:08:56;9.27;;;3.97;;
81273;SDS011;70753;47.908;11.274;2023-08-20T08:11:21;8.73;;;4.50;;
81273;SDS011;70753;47.908;11.274;2023-08-20T08:13:47;7.18;;;4.30;;
81273;SDS011;70753;47.908;11.274;2023-08-20T08:16:12;8.95;;;4.35;;
81273;SDS011;70753;47.908;11.274;2023-08-20T08:18:39;11.02;;;4.70;;
81273;SDS011;70753;47.908;11.274;2023-08-20T08:21:05;10.77;;;4.35;;
81273;SDS011;70753;47.908;11.274;2023-08-20T08:23:30;8.73;;;5.05;;
81273;SDS011;70753;47.908;11.274;2023-08-20T08:25:55;11.27;;;4.63;;
81273;SDS011;70753;47.908;11.274;2023-08-20T08:28:21;7.10;;;3.97;;
81273;SDS011;70753;47.908;11.274;2023-08-20T08:30:47;8.40;;;3.58;;
81273;SDS011;70753;47.908;11.274;2023-08-20T08:33:12;10.88;;;4.53;;
81273;SDS011;70753;47.908;11.274;2023-08-20T08:35:39;9.35;;;4.28;;
81273;SDS011;70753;47.908;11.274;2023-08-20T08:38:06;8.68;;;4.20;;
81273;SDS011;70753;47.908;11.274;2023-08-20T08:40:31;7.35;;;4.28;;
81273;SDS011;70753;47.908;11.274;2023-08-20T08:42:58;12.73;;;6.68;;
81273;SDS011;70753;47.908;11.274;2023-08-20T08:45:24;11.13;;;4.40;;
81273;SDS011;70753;47.908;11.274;2023-08-20T08:47:51;7.45;;;4.10;;
81273;SDS011;70753;47.908;11.274;2023-08-20T08:50:19;6.72;;;4.03;;
81273;SDS011;70753;47.908;11.274;2023-08-20T08:52:47;9.68;;;4.03;;
81273;SDS011;70753;47.908;11.274;2023-08-20T08:55:15;10.25;;;4.43;;
81273;SDS011;70753;47.908;11.274;2023-08-20T08:57:41;8.60;;;4.18;;
81273;SDS011;70753;47.908;11.274;2023-08-20T09:00:08;8.73;;;4.30;;
81273;SDS011;70753;47.908;11.274;2023-08-20T09:02:34;8.68;;;4.03;;
81273;SDS011;70753;47.908;11.274;2023-08-20T09:05:00;7.40;;;4.22;;
81273;SDS011;70753;47.908;11.274;2023-08-20T09:07:25;8.80;;;3.60;;
81273;SDS011;70753;47.908;11.274;2023-08-20T09:09:56;7.00;;;3.50;;
81273;SDS011;70753;47.908;11.274;2023-08-20T09:12:22;10.35;;;3.95;;
81273;SDS011;70753;47.908;11.274;2023-08-20T09:14:49;8.70;;;3.97;;
81273;SDS011;70753;47.908;11.274;2023-08-20T09:17:15;9.48;;;4.07;;
81273;SDS011;70753;47.908;11.274;2023-08-20T09:19:42;11.57;;;4.20;;
81273;SDS011;70753;47.908;11.274;2023-08-20T09:22:10;8.80;;;4.00;;
81273;SDS011;70753;47.908;11.274;2023-08-20T09:24:38;9.07;;;4.35;;
81273;SDS011;70753;47.908;11.274;2023-08-20T09:27:06;10.55;;;3.90;;
81273;SDS011;70753;47.908;11.274;2023-08-20T09:29:32;8.82;;;4.20;;
81273;SDS011;70753;47.908;11.274;2023-08-20T09:32:00;8.68;;;4.13;;
81273;SDS011;70753;47.908;11.274;2023-08-20T09:34:26;8.68;;;4.32;;
81273;SDS011;70753;47.908;11.274;2023-08-20T09:37:00;8.82;;;4.38;;
81273;SDS011;70753;47.908;11.274;2023-08-20T09:39:26;8.55;;;4.38;;
81273;SDS011;70753;47.908;11.274;2023-08-20T09:41:51;7.90;;;3.85;;
81273;SDS011;70753;47.908;11.274;2023-08-20T09:44:18;7.25;;;3.38;;
81273;SDS011;70753;47.908;11.274;2023-08-20T09:46:46;9.63;;;3.50;;
81273;SDS011;70753;47.908;11.274;2023-08-20T09:49:13;7.10;;;3.65;;
81273;SDS011;70753;47.908;11.274;2023-08-20T09:51:42;7.32;;;3.65;;
81273;SDS011;70753;47.908;11.274;2023-08-20T09:54:10;6.90;;;3.30;;
81273;SDS011;70753;47.908;11.274;2023-08-20T09:56:42;8.07;;;3.50;;
81273;SDS011;70753;47.908;11.274;2023-08-20T09:59:10;9.55;;;3.35;;
81273;SDS011;70753;47.908;11.274;2023-08-20T10:01:37;9.43;;;3.35;;
81273;SDS011;70753;47.908;11.274;2023-08-20T10:04:04;5.93;;;3.42;;
81273;SDS011;70753;47.908;11.274;2023-08-20T10:06:31;10.30;;;3.38;;
81273;SDS011;70753;47.908;11.274;2023-08-20T10:08:57;6.85;;;3.35;;
81273;SDS011;70753;47.908;11.274;2023-08-20T10:11:24;8.60;;;3.35;;
81273;SDS011;70753;47.908;11.274;2023-08-20T10:13:49;6.80;;;3.55;;
81273;SDS011;70753;47.908;11.274;2023-08-20T10:16:17;8.55;;;3.70;;
81273;SDS011;70753;47.908;11.274;2023-08-20T10:18:44;9.23;;;3.90;;
81273;SDS011;70753;47.908;11.274;2023-08-20T10:21:09;5.95;;;3.40;;
81273;SDS011;70753;47.908;11.274;2023-08-20T10:23:35;11.32;;;4.15;;
81273;SDS011;70753;47.908;11.274;2023-08-20T10:26:06;8.82;;;3.13;;
81273;SDS011;70753;47.908;11.274;2023-08-20T10:28:32;8.82;;;3.17;;
81273;SDS011;70753;47.908;11.274;2023-08-20T10:31:04;8.00;;;3.20;;
81273;SDS011;70753;47.908;11.274;2023-08-20T10:33:33;8.13;;;3.28;;
81273;SDS011;70753;47.908;11.274;2023-08-20T10:36:07;5.55;;;3.10;;
81273;SDS011;70753;47.908;11.274;2023-08-20T10:38:35;7.53;;;3.30;;
81273;SDS011;70753;47.908;11.274;2023-08-20T10:41:01;7.72;;;3.22;;
81273;SDS011;70753;47.908;11.274;2023-08-20T10:43:32;8.00;;;3.40;;
81273;SDS011;70753;47.908;11.274;2023-08-20T10:46:02;8.32;;;3.28;;
81273;SDS011;70753;47.908;11.274;2023-08-20T10:48:28;8.35;;;3.40;;
81273;SDS011;70753;47.908;11.274;2023-08-20T10:50:54;7.25;;;3.15;;
81273;SDS011;70753;47.908;11.274;2023-08-20T10:53:22;6.40;;;3.20;;
81273;SDS011;70753;47.908;11.274;2023-08-20T10:55:48;10.30;;;3.60;;
81273;SDS011;70753;47.908;11.274;2023-08-20T10:58:13;6.57;;;3.00;;
81273;SDS011;70753;47.908;11.274;2023-08-20T11:00:39;8.18;;;3.20;;
81273;SDS011;70753;47.908;11.274;2023-08-20T11:03:05;8.05;;;3.30;;
81273;SDS011;70753;47.908;11.274;2023-08-20T11:05:30;13.40;;;3.85;;
81273;SDS011;70753;47.908;11.274;2023-08-20T11:07:57;6.57;;;2.92;;
81273;SDS011;70753;47.908;11.274;2023-08-20T11:10:25;6.80;;;3.40;;
81273;SDS011;70753;47.908;11.274;2023-08-20T11:12:51;7.95;;;3.35;;
81273;SDS011;70753;47.908;11.274;2023-08-20T11:15:17;7.03;;;3.10;;
81273;SDS011;70753;47.908;11.274;2023-08-20T11:17:42;6.07;;;3.30;;
81273;SDS011;70753;47.908;11.274;2023-08-20T11:20:09;7.22;;;2.90;;
81273;SDS011;70753;47.908;11.274;2023-08-20T11:22:35;6.32;;;3.53;;
81273;SDS011;70753;47.908;11.274;2023-08-20T11:25:01;10.65;;;3.30;;
81273;SDS011;70753;47.908;11.274;2023-08-20T11:27:28;7.32;;;3.10;;
81273;SDS011;70753;47.908;11.274;2023-08-20T11:29:53;8.15;;;3.63;;
81273;SDS011;70753;47.908;11.274;2023-08-20T11:32:20;7.03;;;3.35;;
81273;SDS011;70753;47.908;11.274;2023-08-20T11:34:45;9.13;;;3.35;;
81273;SDS011;70753;47.908;11.274;2023-08-20T11:37:11;11.63;;;7.63;;
81273;SDS011;70753;47.908;11.274;2023-08-20T11:39:37;8.02;;;4.68;;
81273;SDS011;70753;47.908;11.274;2023-08-20T11:42:02;8.90;;;3.53;;
81273;SDS011;70753;47.908;11.274;2023-08-20T11:44:41;7.25;;;3.20;;
81273;SDS011;70753;47.908;11.274;2023-08-20T11:47:12;8.85;;;3.50;;
81273;SDS011;70753;47.908;11.274;2023-08-20T11:49:38;7.47;;;3.28;;
81273;SDS011;70753;47.908;11.274;2023-08-20T11:52:06;8.90;;;3.45;;
81273;SDS011;70753;47.908;11.274;2023-08-20T11:54:32;6.95;;;3.10;;
81273;SDS011;70753;47.908;11.274;2023-08-20T11:57:01;7.43;;;3.20;;
81273;SDS011;70753;47.908;11.274;2023-08-20T11:59:28;7.75;;;3.42;;
81273;SDS011;70753;47.908;11.274;2023-08-20T12:01:54;6.70;;;3.28;;
81273;SDS011;70753;47.908;11.274;2023-08-20T12:04:23;8.10;;;3.25;;
81273;SDS011;70753;47.908;11.274;2023-08-20T12:07:00;8.10;;;3.13;;
81273;SDS011;70753;47.908;11.274;2023-08-20T12:09:27;8.27;;;3.13;;
81273;SDS011;70753;47.908;11.274;2023-08-20T12:11:54;7.38;;;3.42;;
81273;SDS011;70753;47.908;11.274;2023-08-20T12:14:19;8.20;;;3.15;;
81273;SDS011;70753;47.908;11.274;2023-08-20T12:16:46;7.40;;;3.20;;
81273;SDS011;70753;47.908;11.274;2023-08-20T12:19:12;10.98;;;3.20;;
81273;SDS011;70753;47.908;11.274;2023-08-20T12:21:38;8.90;;;3.30;;
81273;SDS011;70753;47.908;11.274;2023-08-20T12:24:03;8.85;;;3.28;;
81273;SDS011;70753;47.908;11.274;2023-08-20T12:26:29;9.93;;;3.40;;
81273;SDS011;70753;47.908;11.274;2023-08-20T12:28:55;7.35;;;3.13;;
81273;SDS011;70753;47.908;11.274;2023-08-20T12:31:21;9.15;;;3.33;;
81273;SDS011;70753;47.908;11.274;2023-08-20T12:33:48;6.35;;;2.90;;
81273;SDS011;70753;47.908;11.274;2023-08-20T12:36:14;5.45;;;2.88;;
81273;SDS011;70753;47.908;11.274;2023-08-20T12:38:39;8.07;;;3.20;;
81273;SDS011;70753;47.908;11.274;2023-08-20T12:41:04;7.07;;;3.20;;
81273;SDS011;70753;47.908;11.274;2023-08-20T12:43:30;8.77;;;3.38;;
81273;SDS011;70753;47.908;11.274;2023-08-20T12:45:55;6.32;;;3.30;;
81273;SDS011;70753;47.908;11.274;2023-08-20T12:48:21;8.48;;;2.95;;
81273;SDS011;70753;47.908;11.274;2023-08-20T12:50:48;6.43;;;3.22;;
81273;SDS011;70753;47.908;11.274;2023-08-20T12:53:13;6.45;;;3.40;;
81273;SDS011;70753;47.908;11.274;2023-08-20T12:55:38;9.25;;;3.10;;
81273;SDS011;70753;47.908;11.274;2023-08-20T12:58:04;10.95;;;3.13;;
81273;SDS011;70753;47.908;11.274;2023-08-20T13:00:29;7.85;;;3.03;;
81273;SDS011;70753;47.908;11.274;2023-08-20T13:02:56;6.90;;;2.92;;
81273;SDS011;70753;47.908;11.274;2023-08-20T13:05:22;8.20;;;2.90;;
81273;SDS011;70753;47.908;11.274;2023-08-20T13:07:50;8.23;;;3.00;;
81273;SDS011;70753;47.908;11.274;2023-08-20T13:10:16;7.70;;;2.90;;
81273;SDS011;70753;47.908;11.274;2023-08-20T13:12:43;7.65;;;2.90;;
81273;SDS011;70753;47.908;11.274;2023-08-20T13:15:13;8.77;;;3.10;;
81273;SDS011;70753;47.908;11.274;2023-08-20T13:17:39;9.52;;;3.15;;
81273;SDS011;70753;47.908;11.274;2023-08-20T13:20:05;6.55;;;2.67;;
81273;SDS011;70753;47.908;11.274;2023-08-20T13:22:31;6.75;;;2.80;;
81273;SDS011;70753;47.908;11.274;2023-08-20T13:24:58;7.40;;;2.83;;
81273;SDS011;70753;47.908;11.274;2023-08-20T13:27:23;6.78;;;2.70;;
81273;SDS011;70753;47.908;11.274;2023-08-20T13:29:50;7.43;;;2.60;;
81273;SDS011;70753;47.908;11.274;2023-08-20T13:32:15;5.70;;;2.85;;
81273;SDS011;70753;47.908;11.274;2023-08-20T13:34:40;7.15;;;2.63;;
81273;SDS011;70753;47.908;11.274;2023-08-20T13:37:06;7.68;;;3.10;;
81273;SDS011;70753;47.908;11.274;2023-08-20T13:39:31;6.45;;;2.97;;
81273;SDS011;70753;47.908;11.274;2023-08-20T13:41:58;6.60;;;2.72;;
81273;SDS011;70753;47.908;11.274;2023-08-20T13:44:23;8.70;;;3.10;;
81273;SDS011;70753;47.908;11.274;2023-08-20T13:46:49;6.20;;;2.60;;
81273;SDS011;70753;47.908;11.274;2023-08-20T13:49:14;5.88;;;2.75;;
81273;SDS011;70753;47.908;11.274;2023-08-20T13:51:40;5.40;;;2.55;;
81273;SDS011;70753;47.908;11.274;2023-08-20T13:54:06;6.47;;;2.50;;
81273;SDS011;70753;47.908;11.274;2023-08-20T13:56:31;5.38;;;2.40;;
81273;SDS011;70753;47.908;11.274;2023-08-20T13:58:58;5.07;;;2.33;;
81273;SDS011;70753;47.908;11.274;2023-08-20T14:01:24;9.35;;;2.83;;
81273;SDS011;70753;47.908;11.274;2023-08-20T14:03:50;7.38;;;2.63;;
81273;SDS011;70753;47.908;11.274;2023-08-20T14:06:15;5.80;;;2.97;;
81273;SDS011;70753;47.908;11.274;2023-08-20T14:08:41;8.02;;;2.70;;
81273;SDS011;70753;47.908;11.274;2023-08-20T14:11:06;8.10;;;2.65;;
81273;SDS011;70753;47.908;11.274;2023-08-20T14:13:31;7.35;;;3.00;;
81273;SDS011;70753;47.908;11.274;2023-08-20T14:15:58;8.10;;;3.13;;
81273;SDS011;70753;47.908;11.274;2023-08-20T14:18:24;6.47;;;2.90;;
81273;SDS011;70753;47.908;11.274;2023-08-20T14:20:49;6.57;;;2.90;;
81273;SDS011;70753;47.908;11.274;2023-08-20T14:23:14;5.13;;;2.75;;
81273;SDS011;70753;47.908;11.274;2023-08-20T14:25:40;7.75;;;3.25;;
81273;SDS011;70753;47.908;11.274;2023-08-20T14:28:06;5.68;;;2.80;;